sensor_id;sensor_type;location;lat;lon;timestamp;pressure;altitude;pressure_sealevel;temperature;humidity
6134;BME280;3098;42.678;23.364;2023-01-10T00:07:26;94155.16;;;2.37;100.00
6134;BME280;3098;42.678;23.364;2023-01-10T00:09:54;94153.78;;;2.10;100.00
6134;BME280;3098;42.678;23.364;2023-01-10T00:12:21;94168.53;;;2.35;100.00
6134;BME280;3098;42.678;23.364;2023-01-10T03:53:44;94062.66;;;2.99;100.00
6134;BME280;3098;42.678;23.364;2023-01-10T03:56:13;94058.25;;;2.94;100.00
6134;BME280;3098;42.678;23.364;2023-01-10T03:58:41;94025.94;;;2.80;100.00
6134;BME280;3098;42.678;23.364;2023-01-10T04:01:09;93951.22;;;2.45;100.00
6134;BME280;3098;42.678;23.364;2023-01-10T04:03:37;94007.78;;;2.88;100.00
6134;BME280;3098;42.678;23.364;2023-01-10T04:06:05;93993.28;;;2.96;100.00
6134;BME280;3098;42.678;23.364;2023-01-10T04:08:34;93996.53;;;3.07;100.00
6134;BME280;3098;42.678;23.364;2023-01-10T04:11:04;93980.81;;;3.07;100.00
6134;BME280;3098;42.678;23.364;2023-01-10T04:13:32;93969.34;;;3.03;100.00
6134;BME280;3098;42.678;23.364;2023-01-10T04:16:00;93975.72;;;2.97;100.00
6134;BME280;3098;42.678;23.364;2023-01-10T04:18:27;93974.72;;;2.92;100.00
6134;BME280;3098;42.678;23.364;2023-01-10T04:20:54;93805.31;;;1.76;100.00
6134;BME280;3098;42.678;23.364;2023-01-10T04:23:22;93976.47;;;2.78;100.00
6134;BME280;3098;42.678;23.364;2023-01-10T04:25:49;93889.84;;;2.14;100.00
6134;BME280;3098;42.678;23.364;2023-01-10T04:28:19;94026.75;;;2.80;100.00
6134;BME280;3098;42.678;23.364;2023-01-10T04:30:47;94062.38;;;2.76;100.00
6134;BME280;3098;42.678;23.364;2023-01-10T04:33:15;94002.91;;;2.35;100.00
6134;BME280;3098;42.678;23.364;2023-01-10T04:35:46;94064.19;;;2.81;100.00
6134;BME280;3098;42.678;23.364;2023-01-10T04:38:14;94066.00;;;2.80;100.00
6134;BME280;3098;42.678;23.364;2023-01-10T04:40:44;94081.91;;;2.89;100.00
6134;BME280;3098;42.678;23.364;2023-01-10T04:43:20;94066.91;;;2.95;100.00
6134;BME280;3098;42.678;23.364;2023-01-10T04:45:48;94037.31;;;2.70;100.00
6134;BME280;3098;42.678;23.364;2023-01-10T04:48:16;94023.03;;;2.81;100.00
6134;BME280;3098;42.678;23.364;2023-01-10T04:50:48;94053.56;;;3.15;100.00
6134;BME280;3098;42.678;23.364;2023-01-10T04:53:16;94023.81;;;3.06;100.00
6134;BME280;3098;42.678;23.364;2023-01-10T04:55:43;93906.88;;;2.35;100.00
6134;BME280;3098;42.678;23.364;2023-01-10T04:58:11;93986.38;;;2.81;100.00
6134;BME280;3098;42.678;23.364;2023-01-10T05:00:41;93980.84;;;2.64;100.00
6134;BME280;3098;42.678;23.364;2023-01-10T05:03:10;94044.84;;;3.19;100.00
6134;BME280;3098;42.678;23.364;2023-01-10T05:05:37;93945.75;;;2.65;100.00
6134;BME280;3098;42.678;23.364;2023-01-10T05:08:05;94008.50;;;3.13;100.00
6134;BME280;3098;42.678;23.364;2023-01-10T05:10:33;93991.59;;;3.05;100.00
6134;BME280;3098;42.678;23.364;2023-01-10T05:13:01;94014.91;;;3.25;100.00
6134;BME280;3098;42.678;23.364;2023-01-10T05:15:29;94007.81;;;3.26;100.00
6134;BME280;3098;42.678;23.364;2023-01-10T05:17:59;94011.41;;;3.30;100.00
6134;BME280;3098;42.678;23.364;2023-01-10T05:20:28;94013.47;;;3.33;100.00
6134;BME280;3098;42.678;23.364;2023-01-10T05:22:57;93923.50;;;2.86;100.00
6134;BME280;3098;42.678;23.364;2023-01-10T05:25:25;93865.94;;;2.44;100.00
6134;BME280;3098;42.678;23.364;2023-01-10T05:27:55;93850.28;;;2.39;100.00
6134;BME280;3098;42.678;23.364;2023-01-10T05:30:23;93973.81;;;3.02;100.00
6134;BME280;3098;42.678;23.364;2023-01-10T05:32:52;94003.34;;;3.26;100.00
6134;BME280;3098;42.678;23.364;2023-01-10T05:35:22;93999.25;;;3.20;100.00
6134;BME280;3098;42.678;23.364;2023-01-10T05:37:50;94016.66;;;3.30;100.00
6134;BME280;3098;42.678;23.364;2023-01-10T05:40:20;94010.44;;;3.26;100.00
6134;BME280;3098;42.678;23.364;2023-01-10T05:42:47;93731.13;;;1.30;100.00
6134;BME280;3098;42.678;23.364;2023-01-10T05:45:14;93975.34;;;2.84;100.00
6134;BME280;3098;42.678;23.364;2023-01-10T05:47:43;93998.47;;;3.20;100.00
6134;BME280;3098;42.678;23.364;2023-01-10T05:50:11;94031.69;;;3.43;100.00
6134;BME280;3098;42.678;23.364;2023-01-10T05:52:40;94010.28;;;3.36;100.00
6134;BME280;3098;42.678;23.364;2023-01-10T05:55:09;94019.13;;;3.59;100.00
6134;BME280;3098;42.678;23.364;2023-01-10T05:57:38;93966.38;;;3.28;100.00
6134;BME280;3098;42.678;23.364;2023-01-10T06:00:06;94014.00;;;3.67;100.00
6134;BME280;3098;42.678;23.364;2023-01-10T06:02:36;93947.34;;;3.22;100.00
6134;BME280;3098;42.678;23.364;2023-01-10T06:05:06;94022.38;;;3.69;100.00
6134;BME280;3098;42.678;23.364;2023-01-10T06:07:40;93920.56;;;3.07;100.00
6134;BME280;3098;42.678;23.364;2023-01-10T06:10:10;94010.81;;;3.70;100.00
6134;BME280;3098;42.678;23.364;2023-01-10T06:12:42;93999.03;;;3.54;100.00
6134;BME280;3098;42.678;23.364;2023-01-10T06:15:14;94023.72;;;3.67;100.00
6134;BME280;3098;42.678;23.364;2023-01-10T06:17:42;94038.44;;;3.81;100.00
6134;BME280;3098;42.678;23.364;2023-01-10T06:20:12;93826.63;;;2.49;100.00
6134;BME280;3098;42.678;23.364;2023-01-10T06:22:42;93984.69;;;3.65;100.00
6134;BME280;3098;42.678;23.364;2023-01-10T06:25:10;94040.25;;;3.99;100.00
6134;BME280;3098;42.678;23.364;2023-01-10T06:27:39;93825.00;;;2.72;100.00
6134;BME280;3098;42.678;23.364;2023-01-10T06:30:08;94019.94;;;3.91;100.00
6134;BME280;3098;42.678;23.364;2023-01-10T06:32:37;93914.66;;;3.33;100.00
6134;BME280;3098;42.678;23.364;2023-01-10T06:35:06;94007.06;;;4.09;100.00
6134;BME280;3098;42.678;23.364;2023-01-10T06:37:35;93972.66;;;3.78;100.00
6134;BME280;3098;42.678;23.364;2023-01-10T06:40:04;94010.66;;;4.13;100.00
6134;BME280;3098;42.678;23.364;2023-01-10T06:42:32;93922.91;;;3.59;100.00
6134;BME280;3098;42.678;23.364;2023-01-10T06:45:00;94008.59;;;4.10;100.00
6134;BME280;3098;42.678;23.364;2023-01-10T06:47:29;93846.16;;;3.08;100.00
6134;BME280;3098;42.678;23.364;2023-01-10T06:49:59;94016.97;;;4.12;100.00
6134;BME280;3098;42.678;23.364;2023-01-10T06:52:27;94024.81;;;4.12;100.00
6134;BME280;3098;42.678;23.364;2023-01-10T06:54:57;93957.03;;;3.73;100.00
6134;BME280;3098;42.678;23.364;2023-01-10T06:57:28;94023.31;;;4.24;100.00
6134;BME280;3098;42.678;23.364;2023-01-10T07:00:01;93977.00;;;4.01;100.00
6134;BME280;3098;42.678;23.364;2023-01-10T07:02:29;93953.84;;;3.89;100.00
6134;BME280;3098;42.678;23.364;2023-01-10T07:04:58;94006.50;;;4.25;100.00
6134;BME280;3098;42.678;23.364;2023-01-10T07:07:27;93876.97;;;3.48;100.00
6134;BME280;3098;42.678;23.364;2023-01-10T07:09:59;94008.72;;;4.32;100.00
6134;BME280;3098;42.678;23.364;2023-01-10T07:12:36;93785.97;;;2.89;100.00
6134;BME280;3098;42.678;23.364;2023-01-10T07:15:05;94010.59;;;4.31;100.00
6134;BME280;3098;42.678;23.364;2023-01-10T07:17:35;93998.81;;;4.29;100.00
6134;BME280;3098;42.678;23.364;2023-01-10T07:20:10;93971.19;;;4.04;100.00
6134;BME280;3098;42.678;23.364;2023-01-10T07:22:43;94008.25;;;4.30;100.00
6134;BME280;3098;42.678;23.364;2023-01-10T07:25:13;93998.06;;;4.28;100.00
6134;BME280;3098;42.678;23.364;2023-01-10T07:27:43;93977.31;;;3.99;100.00
6134;BME280;3098;42.678;23.364;2023-01-10T07:30:14;93937.69;;;3.69;100.00
6134;BME280;3098;42.678;23.364;2023-01-10T07:32:52;93897.63;;;3.49;100.00
6134;BME280;3098;42.678;23.364;2023-01-10T07:35:20;94004.56;;;4.17;100.00
6134;BME280;3098;42.678;23.364;2023-01-10T07:37:48;93998.53;;;4.17;100.00
6134;BME280;3098;42.678;23.364;2023-01-10T07:40:17;93951.75;;;3.91;100.00
6134;BME280;3098;42.678;23.364;2023-01-10T07:42:47;93934.78;;;3.70;100.00
6134;BME280;3098;42.678;23.364;2023-01-10T07:45:18;93959.09;;;3.89;100.00
6134;BME280;3098;42.678;23.364;2023-01-10T07:47:45;93950.66;;;3.92;100.00
6134;BME280;3098;42.678;23.364;2023-01-10T07:50:15;93950.97;;;4.04;100.00
6134;BME280;3098;42.678;23.364;2023-01-10T07:52:43;93927.03;;;3.92;100.00
6134;BME280;3098;42.678;23.364;2023-01-10T07:55:10;93965.78;;;4.14;100.00
6134;BME280;3098;42.678;23.364;2023-01-10T07:57:43;93926.25;;;3.92;100.00
6134;BME280;3098;42.678;23.364;2023-01-10T08:00:16;93825.88;;;3.32;100.00
6134;BME280;3098;42.678;23.364;2023-01-10T08:02:45;93964.22;;;4.27;100.00
6134;BME280;3098;42.678;23.364;2023-01-10T08:05:14;94003.41;;;4.37;100.00
6134;BME280;3098;42.678;23.364;2023-01-10T08:07:42;94005.47;;;4.40;100.00
6134;BME280;3098;42.678;23.364;2023-01-10T08:10:11;93967.50;;;4.19;100.00
6134;BME280;3098;42.678;23.364;2023-01-10T08:12:40;93909.25;;;3.76;100.00
6134;BME280;3098;42.678;23.364;2023-01-10T08:15:08;93814.38;;;3.14;100.00
6134;BME280;3098;42.678;23.364;2023-01-10T08:17:39;93991.81;;;4.24;100.00
6134;BME280;3098;42.678;23.364;2023-01-10T08:20:07;93965.66;;;4.05;100.00
6134;BME280;3098;42.678;23.364;2023-01-10T08:22:36;93987.63;;;4.23;100.00
6134;BME280;3098;42.678;23.364;2023-01-10T08:25:05;93988.88;;;4.26;100.00
6134;BME280;3098;42.678;23.364;2023-01-10T08:27:33;93942.31;;;3.90;100.00
6134;BME280;3098;42.678;23.364;2023-01-10T08:30:01;93985.97;;;4.14;100.00
6134;BME280;3098;42.678;23.364;2023-01-10T08:32:28;93914.84;;;3.69;100.00
6134;BME280;3098;42.678;23.364;2023-01-10T08:35:02;93967.59;;;4.14;100.00
6134;BME280;3098;42.678;23.364;2023-01-10T08:37:30;93973.34;;;4.16;100.00
6134;BME280;3098;42.678;23.364;2023-01-10T08:39:58;93980.63;;;4.19;100.00
6134;BME280;3098;42.678;23.364;2023-01-10T08:42:26;93952.56;;;4.19;100.00
6134;BME280;3098;42.678;23.364;2023-01-10T08:44:54;93899.53;;;3.76;100.00
6134;BME280;3098;42.678;23.364;2023-01-10T08:47:23;93953.69;;;3.99;100.00
6134;BME280;3098;42.678;23.364;2023-01-10T08:49:51;93946.09;;;3.98;100.00
6134;BME280;3098;42.678;23.364;2023-01-10T08:52:20;93941.88;;;3.83;100.00
6134;BME280;3098;42.678;23.364;2023-01-10T08:54:48;93950.75;;;3.87;100.00
6134;BME280;3098;42.678;23.364;2023-01-10T08:57:15;93894.94;;;3.55;100.00
6134;BME280;3098;42.678;23.364;2023-01-10T08:59:44;93820.88;;;3.17;100.00
6134;BME280;3098;42.678;23.364;2023-01-10T09:02:12;93951.44;;;4.06;100.00
6134;BME280;3098;42.678;23.364;2023-01-10T09:04:39;93942.75;;;4.25;100.00
6134;BME280;3098;42.678;23.364;2023-01-10T09:07:12;93948.56;;;4.22;100.00
6134;BME280;3098;42.678;23.364;2023-01-10T09:09:46;93937.97;;;4.27;100.00
6134;BME280;3098;42.678;23.364;2023-01-10T09:12:14;93936.91;;;4.28;100.00
6134;BME280;3098;42.678;23.364;2023-01-10T09:14:59;93936.50;;;4.34;100.00
6134;BME280;3098;42.678;23.364;2023-01-10T09:17:27;93942.34;;;4.45;100.00
6134;BME280;3098;42.678;23.364;2023-01-10T09:19:55;93854.97;;;3.90;100.00
6134;BME280;3098;42.678;23.364;2023-01-10T09:22:23;93947.50;;;4.50;100.00
6134;BME280;3098;42.678;23.364;2023-01-10T09:24:53;93904.63;;;4.14;100.00
6134;BME280;3098;42.678;23.364;2023-01-10T09:27:23;93790.34;;;3.39;100.00
6134;BME280;3098;42.678;23.364;2023-01-10T09:29:50;93777.03;;;3.49;100.00
6134;BME280;3098;42.678;23.364;2023-01-10T09:32:19;93940.28;;;4.55;100.00
6134;BME280;3098;42.678;23.364;2023-01-10T09:34:47;93940.09;;;4.65;100.00
6134;BME280;3098;42.678;23.364;2023-01-10T09:37:14;93932.63;;;4.59;100.00
6134;BME280;3098;42.678;23.364;2023-01-10T09:39:46;93874.19;;;4.26;100.00
6134;BME280;3098;42.678;23.364;2023-01-10T09:42:41;93834.16;;;4.07;100.00
6134;BME280;3098;42.678;23.364;2023-01-10T09:45:16;93892.72;;;4.57;100.00
6134;BME280;3098;42.678;23.364;2023-01-10T09:47:50;93862.81;;;4.44;100.00
6134;BME280;3098;42.678;23.364;2023-01-10T09:50:26;93797.81;;;4.00;100.00
6134;BME280;3098;42.678;23.364;2023-01-10T09:53:02;93891.03;;;4.75;100.00
6134;BME280;3098;42.678;23.364;2023-01-10T09:55:32;93904.06;;;4.93;100.00
6134;BME280;3098;42.678;23.364;2023-01-10T09:58:06;93901.44;;;4.93;100.00
6134;BME280;3098;42.678;23.364;2023-01-10T10:00:41;93783.03;;;4.18;100.00
6134;BME280;3098;42.678;23.364;2023-01-10T10:03:19;93882.81;;;4.68;100.00
6134;BME280;3098;42.678;23.364;2023-01-10T10:05:48;93877.91;;;4.75;100.00
6134;BME280;3098;42.678;23.364;2023-01-10T10:08:18;93833.53;;;4.51;100.00
6134;BME280;3098;42.678;23.364;2023-01-10T10:10:54;93840.72;;;4.59;100.00
6134;BME280;3098;42.678;23.364;2023-01-10T10:13:34;93871.94;;;4.83;100.00
6134;BME280;3098;42.678;23.364;2023-01-10T10:16:13;93827.59;;;4.59;100.00
6134;BME280;3098;42.678;23.364;2023-01-10T10:18:54;93855.06;;;4.75;100.00
6134;BME280;3098;42.678;23.364;2023-01-10T10:21:34;93851.38;;;4.76;100.00
6134;BME280;3098;42.678;23.364;2023-01-10T10:24:20;93866.19;;;4.94;100.00
6134;BME280;3098;42.678;23.364;2023-01-10T10:26:56;93842.31;;;4.82;100.00
6134;BME280;3098;42.678;23.364;2023-01-10T10:29:46;93845.44;;;4.71;100.00
6134;BME280;3098;42.678;23.364;2023-01-10T10:35:11;93744.38;;;4.10;100.00
6134;BME280;3098;42.678;23.364;2023-01-10T10:37:41;93830.63;;;4.75;100.00
6134;BME280;3098;42.678;23.364;2023-01-10T10:40:16;93824.38;;;4.62;100.00
6134;BME280;3098;42.678;23.364;2023-01-10T10:42:48;93795.34;;;4.45;100.00
6134;BME280;3098;42.678;23.364;2023-01-10T10:45:23;93850.72;;;4.71;100.00
6134;BME280;3098;42.678;23.364;2023-01-10T10:47:58;93673.63;;;3.69;100.00
6134;BME280;3098;42.678;23.364;2023-01-10T10:50:31;93819.81;;;4.54;100.00
6134;BME280;3098;42.678;23.364;2023-01-10T10:53:00;93784.72;;;4.50;100.00
6134;BME280;3098;42.678;23.364;2023-01-10T10:55:30;93839.97;;;4.81;100.00
6134;BME280;3098;42.678;23.364;2023-01-10T10:58:03;93838.78;;;4.87;100.00
6134;BME280;3098;42.678;23.364;2023-01-10T11:00:36;93729.84;;;3.90;100.00
6134;BME280;3098;42.678;23.364;2023-01-10T11:03:27;93849.59;;;4.85;100.00
6134;BME280;3098;42.678;23.364;2023-01-10T11:05:59;93849.28;;;4.87;100.00
6134;BME280;3098;42.678;23.364;2023-01-10T11:08:29;93788.72;;;4.47;100.00
6134;BME280;3098;42.678;23.364;2023-01-10T11:11:01;93754.13;;;4.32;100.00
6134;BME280;3098;42.678;23.364;2023-01-10T11:13:42;93827.50;;;4.86;100.00
6134;BME280;3098;42.678;23.364;2023-01-10T11:16:26;93773.63;;;4.53;100.00
6134;BME280;3098;42.678;23.364;2023-01-10T11:19:17;93814.22;;;4.69;100.00
6134;BME280;3098;42.678;23.364;2023-01-10T11:21:49;93827.16;;;4.65;100.00
6134;BME280;3098;42.678;23.364;2023-01-10T11:24:29;93788.91;;;4.51;100.00
6134;BME280;3098;42.678;23.364;2023-01-10T11:27:02;93820.25;;;4.70;100.00
6134;BME280;3098;42.678;23.364;2023-01-10T11:29:36;93733.56;;;4.25;100.00
6134;BME280;3098;42.678;23.364;2023-01-10T11:32:12;93789.97;;;4.50;100.00
6134;BME280;3098;42.678;23.364;2023-01-10T11:34:41;93825.97;;;4.72;100.00
6134;BME280;3098;42.678;23.364;2023-01-10T11:37:17;93691.16;;;3.96;100.00
6134;BME280;3098;42.678;23.364;2023-01-10T11:39:47;93830.91;;;4.87;100.00
6134;BME280;3098;42.678;23.364;2023-01-10T11:42:26;93811.41;;;4.65;100.00
6134;BME280;3098;42.678;23.364;2023-01-10T11:45:19;93812.59;;;4.59;100.00
6134;BME280;3098;42.678;23.364;2023-01-10T11:47:55;93798.97;;;4.57;100.00
6134;BME280;3098;42.678;23.364;2023-01-10T11:50:27;93735.06;;;4.04;100.00
6134;BME280;3098;42.678;23.364;2023-01-10T11:52:56;93736.97;;;4.12;100.00
6134;BME280;3098;42.678;23.364;2023-01-10T11:55:28;93676.84;;;3.66;100.00
6134;BME280;3098;42.678;23.364;2023-01-10T11:58:00;93771.56;;;4.28;100.00
6134;BME280;3098;42.678;23.364;2023-01-10T12:00:34;93811.63;;;4.55;100.00
6134;BME280;3098;42.678;23.364;2023-01-10T12:03:19;93784.53;;;4.46;100.00
6134;BME280;3098;42.678;23.364;2023-01-10T12:05:50;93660.81;;;3.68;100.00
6134;BME280;3098;42.678;23.364;2023-01-10T12:08:29;93784.44;;;4.38;100.00
6134;BME280;3098;42.678;23.364;2023-01-10T12:11:00;93820.28;;;4.56;100.00
6134;BME280;3098;42.678;23.364;2023-01-10T12:13:29;93712.75;;;3.93;100.00
6134;BME280;3098;42.678;23.364;2023-01-10T12:16:15;93830.56;;;4.66;100.00
6134;BME280;3098;42.678;23.364;2023-01-10T12:18:45;93796.59;;;4.47;100.00
6134;BME280;3098;42.678;23.364;2023-01-10T12:21:15;93822.88;;;4.70;100.00
6134;BME280;3098;42.678;23.364;2023-01-10T12:23:48;93736.22;;;3.98;100.00
6134;BME280;3098;42.678;23.364;2023-01-10T12:26:18;93831.75;;;4.60;100.00
6134;BME280;3098;42.678;23.364;2023-01-10T12:28:50;93738.25;;;4.01;100.00
6134;BME280;3098;42.678;23.364;2023-01-10T12:31:22;93656.19;;;3.51;100.00
6134;BME280;3098;42.678;23.364;2023-01-10T12:33:55;93837.00;;;4.60;100.00
6134;BME280;3098;42.678;23.364;2023-01-10T12:36:34;93835.03;;;4.65;100.00
6134;BME280;3098;42.678;23.364;2023-01-10T12:39:09;93833.06;;;4.71;100.00
6134;BME280;3098;42.678;23.364;2023-01-10T12:41:54;93805.56;;;4.69;100.00
6134;BME280;3098;42.678;23.364;2023-01-10T12:44:44;93795.25;;;4.72;100.00
6134;BME280;3098;42.678;23.364;2023-01-10T12:47:26;93814.94;;;4.83;100.00
6134;BME280;3098;42.678;23.364;2023-01-10T12:50:00;93817.56;;;4.83;100.00
6134;BME280;3098;42.678;23.364;2023-01-10T12:52:36;93756.81;;;4.40;100.00
6134;BME280;3098;42.678;23.364;2023-01-10T12:55:13;93832.38;;;4.79;100.00
6134;BME280;3098;42.678;23.364;2023-01-10T12:57:42;93831.38;;;4.89;100.00
6134;BME280;3098;42.678;23.364;2023-01-10T13:00:20;93825.03;;;4.90;100.00
6134;BME280;3098;42.678;23.364;2023-01-10T13:02:53;93834.19;;;4.92;100.00
6134;BME280;3098;42.678;23.364;2023-01-10T13:05:26;93831.44;;;4.97;100.00
6134;BME280;3098;42.678;23.364;2023-01-10T13:07:59;93785.84;;;4.57;100.00
6134;BME280;3098;42.678;23.364;2023-01-10T13:10:30;93603.69;;;3.42;100.00
6134;BME280;3098;42.678;23.364;2023-01-10T13:13:06;93796.22;;;4.76;100.00
6134;BME280;3098;42.678;23.364;2023-01-10T13:15:47;93831.09;;;5.12;100.00
6134;BME280;3098;42.678;23.364;2023-01-10T13:18:22;93792.75;;;4.89;100.00
6134;BME280;3098;42.678;23.364;2023-01-10T13:21:05;93772.00;;;4.65;100.00
6134;BME280;3098;42.678;23.364;2023-01-10T13:23:39;93841.19;;;5.19;100.00
6134;BME280;3098;42.678;23.364;2023-01-10T13:26:16;93847.09;;;5.25;100.00
6134;BME280;3098;42.678;23.364;2023-01-10T13:28:53;93849.88;;;5.28;100.00
6134;BME280;3098;42.678;23.364;2023-01-10T13:31:25;93694.00;;;4.22;100.00
6134;BME280;3098;42.678;23.364;2023-01-10T13:33:57;93748.94;;;4.54;100.00
6134;BME280;3098;42.678;23.364;2023-01-10T13:36:35;93643.50;;;3.80;100.00
6134;BME280;3098;42.678;23.364;2023-01-10T13:39:05;93811.38;;;5.01;100.00
6134;BME280;3098;42.678;23.364;2023-01-10T13:42:11;93843.50;;;5.20;100.00
6134;BME280;3098;42.678;23.364;2023-01-10T13:45:18;93844.47;;;5.25;100.00
6134;BME280;3098;42.678;23.364;2023-01-10T13:50:56;93799.97;;;4.84;100.00
6134;BME280;3098;42.678;23.364;2023-01-10T13:53:50;93822.16;;;5.00;100.00
6134;BME280;3098;42.678;23.364;2023-01-10T13:56:44;93851.38;;;5.20;100.00
6134;BME280;3098;42.678;23.364;2023-01-10T13:59:13;93837.06;;;5.04;100.00
6134;BME280;3098;42.678;23.364;2023-01-10T14:01:59;93805.41;;;4.87;100.00
6134;BME280;3098;42.678;23.364;2023-01-10T14:04:47;93847.69;;;5.21;100.00
6134;BME280;3098;42.678;23.364;2023-01-10T14:07:22;93855.28;;;5.23;100.00
6134;BME280;3098;42.678;23.364;2023-01-10T14:09:58;93851.97;;;5.17;100.00
6134;BME280;3098;42.678;23.364;2023-01-10T14:12:30;93855.22;;;5.14;100.00
6134;BME280;3098;42.678;23.364;2023-01-10T14:15:05;93770.66;;;4.68;100.00
6134;BME280;3098;42.678;23.364;2023-01-10T14:17:35;93852.63;;;5.23;100.00
6134;BME280;3098;42.678;23.364;2023-01-10T14:20:16;93726.22;;;4.36;100.00
6134;BME280;3098;42.678;23.364;2023-01-10T14:23:03;93754.28;;;4.49;100.00
6134;BME280;3098;42.678;23.364;2023-01-10T14:25:37;93824.06;;;4.86;100.00
6134;BME280;3098;42.678;23.364;2023-01-10T14:28:16;93848.38;;;4.91;100.00
6134;BME280;3098;42.678;23.364;2023-01-10T14:30:59;93865.53;;;5.11;100.00
6134;BME280;3098;42.678;23.364;2023-01-10T14:33:28;93861.19;;;5.06;100.00
6134;BME280;3098;42.678;23.364;2023-01-10T14:36:06;93839.59;;;4.74;100.00
6134;BME280;3098;42.678;23.364;2023-01-10T14:38:36;93812.41;;;4.56;100.00
6134;BME280;3098;42.678;23.364;2023-01-10T14:41:12;93855.72;;;4.81;100.00
6134;BME280;3098;42.678;23.364;2023-01-10T14:43:48;93833.44;;;4.56;100.00
6134;BME280;3098;42.678;23.364;2023-01-10T14:46:23;93858.59;;;4.71;100.00
6134;BME280;3098;42.678;23.364;2023-01-10T14:48:56;93846.25;;;4.57;100.00
6134;BME280;3098;42.678;23.364;2023-01-10T14:51:26;93758.88;;;3.94;100.00
6134;BME280;3098;42.678;23.364;2023-01-10T14:53:57;93876.09;;;4.61;100.00
6134;BME280;3098;42.678;23.364;2023-01-10T14:56:29;93882.72;;;4.59;100.00
6134;BME280;3098;42.678;23.364;2023-01-10T14:59:16;93766.47;;;3.68;100.00
6134;BME280;3098;42.678;23.364;2023-01-10T15:01:46;93729.75;;;3.41;100.00
6134;BME280;3098;42.678;23.364;2023-01-10T15:04:15;93881.56;;;4.38;100.00
6134;BME280;3098;42.678;23.364;2023-01-10T15:06:53;93825.06;;;3.91;100.00
6134;BME280;3098;42.678;23.364;2023-01-10T15:09:29;93805.81;;;3.82;100.00
6134;BME280;3098;42.678;23.364;2023-01-10T15:12:03;93914.84;;;4.42;100.00
6134;BME280;3098;42.678;23.364;2023-01-10T15:14:32;93903.84;;;4.40;100.00
6134;BME280;3098;42.678;23.364;2023-01-10T15:17:02;93873.03;;;4.19;100.00
6134;BME280;3098;42.678;23.364;2023-01-10T15:19:36;93878.09;;;4.15;100.00
6134;BME280;3098;42.678;23.364;2023-01-10T15:22:17;93884.22;;;4.11;100.00
6134;BME280;3098;42.678;23.364;2023-01-10T15:24:56;93914.91;;;4.24;100.00
6134;BME280;3098;42.678;23.364;2023-01-10T15:27:27;93904.72;;;4.22;100.00
6134;BME280;3098;42.678;23.364;2023-01-10T15:29:57;93917.75;;;4.27;100.00
6134;BME280;3098;42.678;23.364;2023-01-10T15:32:30;93906.28;;;4.10;100.00
6134;BME280;3098;42.678;23.364;2023-01-10T15:35:01;93908.41;;;4.07;100.00
6134;BME280;3098;42.678;23.364;2023-01-10T15:37:32;93933.09;;;4.20;100.00
6134;BME280;3098;42.678;23.364;2023-01-10T15:40:05;93932.34;;;4.20;100.00
6134;BME280;3098;42.678;23.364;2023-01-10T15:42:37;93876.09;;;3.66;100.00
6134;BME280;3098;42.678;23.364;2023-01-10T15:45:26;93945.41;;;3.92;100.00
6134;BME280;3098;42.678;23.364;2023-01-10T15:47:55;93948.03;;;3.92;100.00
6134;BME280;3098;42.678;23.364;2023-01-10T15:50:38;93951.09;;;3.81;100.00
6134;BME280;3098;42.678;23.364;2023-01-10T15:53:21;93963.97;;;3.64;100.00
6134;BME280;3098;42.678;23.364;2023-01-10T15:56:12;93968.53;;;3.58;100.00
6134;BME280;3098;42.678;23.364;2023-01-10T15:58:51;93751.72;;;1.97;100.00
6134;BME280;3098;42.678;23.364;2023-01-10T16:01:19;93866.59;;;2.73;100.00
6134;BME280;3098;42.678;23.364;2023-01-10T16:03:50;93916.28;;;2.97;100.00
6134;BME280;3098;42.678;23.364;2023-01-10T16:06:24;93967.06;;;3.33;100.00
6134;BME280;3098;42.678;23.364;2023-01-10T16:08:54;93989.41;;;3.31;100.00
6134;BME280;3098;42.678;23.364;2023-01-10T16:11:39;93893.03;;;2.53;100.00
6134;BME280;3098;42.678;23.364;2023-01-10T16:14:26;93960.97;;;2.82;100.00
6134;BME280;3098;42.678;23.364;2023-01-10T16:16:54;93996.84;;;2.81;100.00
6134;BME280;3098;42.678;23.364;2023-01-10T16:19:25;94006.09;;;2.55;100.00
6134;BME280;3098;42.678;23.364;2023-01-10T16:21:55;94007.06;;;2.36;100.00
6134;BME280;3098;42.678;23.364;2023-01-10T16:24:26;93910.28;;;1.59;100.00
6134;BME280;3098;42.678;23.364;2023-01-10T16:26:58;93964.31;;;1.98;100.00
6134;BME280;3098;42.678;23.364;2023-01-10T16:29:30;94015.63;;;2.17;100.00
6134;BME280;3098;42.678;23.364;2023-01-10T16:32:07;93940.13;;;1.53;100.00
6134;BME280;3098;42.678;23.364;2023-01-10T16:34:48;94012.09;;;1.74;100.00
6134;BME280;3098;42.678;23.364;2023-01-10T16:37:30;93964.19;;;1.16;100.00
6134;BME280;3098;42.678;23.364;2023-01-10T16:40:39;94040.47;;;1.57;100.00
6134;BME280;3098;42.678;23.364;2023-01-10T16:49:05;94044.28;;;1.31;100.00
6134;BME280;3098;42.678;23.364;2023-01-10T16:51:38;94054.19;;;1.34;100.00
6134;BME280;3098;42.678;23.364;2023-01-10T16:54:16;94049.28;;;1.23;100.00
6134;BME280;3098;42.678;23.364;2023-01-10T16:59:30;93962.94;;;0.60;100.00
6134;BME280;3098;42.678;23.364;2023-01-10T17:05:08;94051.69;;;1.14;100.00
6134;BME280;3098;42.678;23.364;2023-01-10T17:07:41;94058.22;;;1.11;100.00
6134;BME280;3098;42.678;23.364;2023-01-10T17:10:09;94065.81;;;1.08;100.00
6134;BME280;3098;42.678;23.364;2023-01-10T17:12:50;94066.88;;;1.07;100.00
6134;BME280;3098;42.678;23.364;2023-01-10T17:15:28;94076.53;;;1.06;100.00
6134;BME280;3098;42.678;23.364;2023-01-10T17:18:02;94083.09;;;1.04;100.00
6134;BME280;3098;42.678;23.364;2023-01-10T17:20:32;94087.53;;;1.03;100.00
6134;BME280;3098;42.678;23.364;2023-01-10T17:23:02;93902.50;;;-0.16;100.00
6134;BME280;3098;42.678;23.364;2023-01-10T17:25:34;94093.00;;;1.07;100.00
6134;BME280;3098;42.678;23.364;2023-01-10T17:28:03;94085.91;;;1.12;100.00
6134;BME280;3098;42.678;23.364;2023-01-10T17:30:31;93978.94;;;0.43;100.00
6134;BME280;3098;42.678;23.364;2023-01-10T17:33:01;94089.00;;;1.25;100.00
6134;BME280;3098;42.678;23.364;2023-01-10T17:35:30;94011.97;;;0.73;100.00
6134;BME280;3098;42.678;23.364;2023-01-10T17:38:01;94094.75;;;1.22;100.00
6134;BME280;3098;42.678;23.364;2023-01-10T17:40:27;94032.25;;;0.86;100.00
6134;BME280;3098;42.678;23.364;2023-01-10T17:42:55;94104.13;;;1.23;100.00